sensor_id;sensor_type;location;lat;lon;timestamp;temperature;humidity
66184;DHT22;52989;48.796;9.806;2022-09-25T00:00:45;12.70;99.90
66184;DHT22;52989;48.796;9.806;2022-09-25T00:03:12;12.40;99.90
66184;DHT22;52989;48.796;9.806;2022-09-25T00:05:38;12.50;99.90
66184;DHT22;52989;48.796;9.806;2022-09-25T00:08:05;12.50;99.90
66184;DHT22;52989;48.796;9.806;2022-09-25T00:10:31;12.50;99.90
66184;DHT22;52989;48.796;9.806;2022-09-25T00:12:57;12.60;99.90
66184;DHT22;52989;48.796;9.806;2022-09-25T00:15:22;12.60;99.90
66184;DHT22;52989;48.796;9.806;2022-09-25T00:17:48;12.90;99.90
66184;DHT22;52989;48.796;9.806;2022-09-25T00:20:18;12.80;99.90
66184;DHT22;52989;48.796;9.806;2022-09-25T00:22:48;12.70;99.90
66184;DHT22;52989;48.796;9.806;2022-09-25T00:25:15;12.80;99.90
66184;DHT22;52989;48.796;9.806;2022-09-25T00:27:42;13.00;99.90
66184;DHT22;52989;48.796;9.806;2022-09-25T00:30:09;13.00;99.90
66184;DHT22;52989;48.796;9.806;2022-09-25T00:32:36;13.00;99.90
66184;DHT22;52989;48.796;9.806;2022-09-25T00:35:03;12.50;99.90
66184;DHT22;52989;48.796;9.806;2022-09-25T00:37:28;12.70;99.90
66184;DHT22;52989;48.796;9.806;2022-09-25T00:39:55;13.00;99.90
66184;DHT22;52989;48.796;9.806;2022-09-25T00:42:21;12.90;99.90
66184;DHT22;52989;48.796;9.806;2022-09-25T00:44:55;12.80;99.90
66184;DHT22;52989;48.796;9.806;2022-09-25T00:50:38;12.90;99.90
66184;DHT22;52989;48.796;9.806;2022-09-25T00:53:13;12.90;99.90
66184;DHT22;52989;48.796;9.806;2022-09-25T00:55:42;12.90;99.90
66184;DHT22;52989;48.796;9.806;2022-09-25T00:58:10;12.90;99.90
66184;DHT22;52989;48.796;9.806;2022-09-25T01:00:37;13.00;99.90
66184;DHT22;52989;48.796;9.806;2022-09-25T01:03:03;12.50;99.90
66184;DHT22;52989;48.796;9.806;2022-09-25T01:05:35;12.50;99.90
66184;DHT22;52989;48.796;9.806;2022-09-25T01:08:03;12.60;99.90
66184;DHT22;52989;48.796;9.806;2022-09-25T01:10:29;12.50;99.90
66184;DHT22;52989;48.796;9.806;2022-09-25T01:12:55;12.20;99.90
66184;DHT22;52989;48.796;9.806;2022-09-25T01:18:17;12.00;99.90
66184;DHT22;52989;48.796;9.806;2022-09-25T01:20:56;11.90;99.90
66184;DHT22;52989;48.796;9.806;2022-09-25T01:29:39;12.30;99.90
66184;DHT22;52989;48.796;9.806;2022-09-25T01:32:06;12.50;99.90
66184;DHT22;52989;48.796;9.806;2022-09-25T01:40:13;12.40;99.90
66184;DHT22;52989;48.796;9.806;2022-09-25T01:42:44;12.50;99.90
66184;DHT22;52989;48.796;9.806;2022-09-25T01:45:28;12.30;99.90
66184;DHT22;52989;48.796;9.806;2022-09-25T01:47:56;12.10;99.90
66184;DHT22;52989;48.796;9.806;2022-09-25T01:50:41;12.10;99.90
66184;DHT22;52989;48.796;9.806;2022-09-25T01:53:12;12.50;99.90
66184;DHT22;52989;48.796;9.806;2022-09-25T01:55:44;12.20;99.90
66184;DHT22;52989;48.796;9.806;2022-09-25T01:58:26;12.20;99.90
66184;DHT22;52989;48.796;9.806;2022-09-25T02:00:58;12.00;99.90
66184;DHT22;52989;48.796;9.806;2022-09-25T02:03:31;11.70;99.90
66184;DHT22;52989;48.796;9.806;2022-09-25T02:06:05;11.90;99.90
66184;DHT22;52989;48.796;9.806;2022-09-25T02:08:41;12.10;99.90
66184;DHT22;52989;48.796;9.806;2022-09-25T02:11:08;11.90;99.90
66184;DHT22;52989;48.796;9.806;2022-09-25T02:13:40;11.80;99.90
66184;DHT22;52989;48.796;9.806;2022-09-25T02:16:17;11.80;99.90
66184;DHT22;52989;48.796;9.806;2022-09-25T02:18:44;11.80;99.90
66184;DHT22;52989;48.796;9.806;2022-09-25T02:24:28;11.80;99.90
66184;DHT22;52989;48.796;9.806;2022-09-25T02:26:57;12.00;99.90
66184;DHT22;52989;48.796;9.806;2022-09-25T02:29:22;11.90;99.90
66184;DHT22;52989;48.796;9.806;2022-09-25T02:31:58;11.80;99.90
66184;DHT22;52989;48.796;9.806;2022-09-25T02:34:27;12.00;99.90
66184;DHT22;52989;48.796;9.806;2022-09-25T02:36:52;12.30;99.90
66184;DHT22;52989;48.796;9.806;2022-09-25T02:39:21;12.30;99.90
66184;DHT22;52989;48.796;9.806;2022-09-25T02:42:02;12.20;99.90
66184;DHT22;52989;48.796;9.806;2022-09-25T02:45:02;12.50;99.90
66184;DHT22;52989;48.796;9.806;2022-09-25T02:55:57;11.60;99.90
66184;DHT22;52989;48.796;9.806;2022-09-25T02:58:28;11.60;99.90
66184;DHT22;52989;48.796;9.806;2022-09-25T03:00:55;11.60;99.90
66184;DHT22;52989;48.796;9.806;2022-09-25T03:03:23;11.50;99.90
66184;DHT22;52989;48.796;9.806;2022-09-25T03:05:51;11.60;99.90
66184;DHT22;52989;48.796;9.806;2022-09-25T03:08:19;11.80;99.90
66184;DHT22;52989;48.796;9.806;2022-09-25T03:11:08;11.50;99.90
66184;DHT22;52989;48.796;9.806;2022-09-25T03:13:35;11.50;99.90
66184;DHT22;52989;48.796;9.806;2022-09-25T03:16:07;11.40;99.90
66184;DHT22;52989;48.796;9.806;2022-09-25T03:18:34;11.40;99.90
66184;DHT22;52989;48.796;9.806;2022-09-25T03:21:00;11.30;99.90
66184;DHT22;52989;48.796;9.806;2022-09-25T03:23:27;11.50;99.90
66184;DHT22;52989;48.796;9.806;2022-09-25T03:25:53;11.40;99.90
66184;DHT22;52989;48.796;9.806;2022-09-25T03:28:19;11.80;99.90
66184;DHT22;52989;48.796;9.806;2022-09-25T03:30:57;11.70;99.90
66184;DHT22;52989;48.796;9.806;2022-09-25T03:33:23;11.40;99.90
66184;DHT22;52989;48.796;9.806;2022-09-25T03:36:05;11.30;99.90
66184;DHT22;52989;48.796;9.806;2022-09-25T03:38:32;11.20;99.90
66184;DHT22;52989;48.796;9.806;2022-09-25T03:40:58;11.20;99.90
66184;DHT22;52989;48.796;9.806;2022-09-25T03:43:23;11.30;99.90
66184;DHT22;52989;48.796;9.806;2022-09-25T03:45:49;11.80;99.90
66184;DHT22;52989;48.796;9.806;2022-09-25T03:48:14;11.60;99.90
66184;DHT22;52989;48.796;9.806;2022-09-25T03:50:40;11.70;99.90
66184;DHT22;52989;48.796;9.806;2022-09-25T03:53:06;11.50;99.90
66184;DHT22;52989;48.796;9.806;2022-09-25T03:55:32;11.90;99.90
66184;DHT22;52989;48.796;9.806;2022-09-25T03:57:58;11.80;99.90
66184;DHT22;52989;48.796;9.806;2022-09-25T04:00:23;11.60;99.90
66184;DHT22;52989;48.796;9.806;2022-09-25T04:02:49;11.50;99.90
66184;DHT22;52989;48.796;9.806;2022-09-25T04:05:15;12.10;99.90
66184;DHT22;52989;48.796;9.806;2022-09-25T04:07:41;12.00;99.90
66184;DHT22;52989;48.796;9.806;2022-09-25T04:10:07;12.00;99.90
66184;DHT22;52989;48.796;9.806;2022-09-25T04:12:32;12.30;99.90
66184;DHT22;52989;48.796;9.806;2022-09-25T04:14:58;11.90;99.90
66184;DHT22;52989;48.796;9.806;2022-09-25T04:17:23;11.80;99.90
66184;DHT22;52989;48.796;9.806;2022-09-25T04:19:49;11.70;99.90
66184;DHT22;52989;48.796;9.806;2022-09-25T04:22:15;11.80;99.90
66184;DHT22;52989;48.796;9.806;2022-09-25T04:24:40;11.80;99.90
66184;DHT22;52989;48.796;9.806;2022-09-25T04:27:12;12.00;99.90
66184;DHT22;52989;48.796;9.806;2022-09-25T04:29:38;11.90;99.90
66184;DHT22;52989;48.796;9.806;2022-09-25T04:32:04;11.70;99.90
66184;DHT22;52989;48.796;9.806;2022-09-25T04:34:56;12.30;99.90
66184;DHT22;52989;48.796;9.806;2022-09-25T04:37:22;12.50;99.90
66184;DHT22;52989;48.796;9.806;2022-09-25T04:39:53;12.30;99.90
66184;DHT22;52989;48.796;9.806;2022-09-25T04:42:19;11.90;99.90
66184;DHT22;52989;48.796;9.806;2022-09-25T04:44:49;12.00;99.90
66184;DHT22;52989;48.796;9.806;2022-09-25T04:47:14;12.00;99.90
66184;DHT22;52989;48.796;9.806;2022-09-25T04:49:40;11.90;99.90
66184;DHT22;52989;48.796;9.806;2022-09-25T04:52:06;12.00;99.90
66184;DHT22;52989;48.796;9.806;2022-09-25T04:54:31;11.70;99.90
66184;DHT22;52989;48.796;9.806;2022-09-25T04:56:57;11.70;99.90
66184;DHT22;52989;48.796;9.806;2022-09-25T04:59:22;12.00;99.90
66184;DHT22;52989;48.796;9.806;2022-09-25T05:01:48;11.80;99.90
66184;DHT22;52989;48.796;9.806;2022-09-25T05:04:13;11.60;99.90
66184;DHT22;52989;48.796;9.806;2022-09-25T05:06:40;11.50;99.90
66184;DHT22;52989;48.796;9.806;2022-09-25T05:09:06;11.60;99.90
66184;DHT22;52989;48.796;9.806;2022-09-25T05:11:31;11.90;99.90
66184;DHT22;52989;48.796;9.806;2022-09-25T05:13:57;11.80;99.90
66184;DHT22;52989;48.796;9.806;2022-09-25T05:16:22;11.70;99.90
66184;DHT22;52989;48.796;9.806;2022-09-25T05:18:48;11.90;99.90
66184;DHT22;52989;48.796;9.806;2022-09-25T05:21:14;12.80;99.90
66184;DHT22;52989;48.796;9.806;2022-09-25T05:23:39;12.30;99.90
66184;DHT22;52989;48.796;9.806;2022-09-25T05:26:05;12.20;99.90
66184;DHT22;52989;48.796;9.806;2022-09-25T05:28:31;12.00;99.90
66184;DHT22;52989;48.796;9.806;2022-09-25T05:31:03;11.90;99.90
66184;DHT22;52989;48.796;9.806;2022-09-25T05:33:30;11.90;99.90
66184;DHT22;52989;48.796;9.806;2022-09-25T05:36:06;11.90;99.90
66184;DHT22;52989;48.796;9.806;2022-09-25T05:38:32;11.90;99.90
66184;DHT22;52989;48.796;9.806;2022-09-25T05:41:05;11.80;99.90
66184;DHT22;52989;48.796;9.806;2022-09-25T05:43:32;11.80;99.90
66184;DHT22;52989;48.796;9.806;2022-09-25T05:45:58;12.20;99.90
66184;DHT22;52989;48.796;9.806;2022-09-25T05:48:24;12.30;99.90
66184;DHT22;52989;48.796;9.806;2022-09-25T05:50:51;12.20;99.90
66184;DHT22;52989;48.796;9.806;2022-09-25T05:53:17;12.90;99.90
66184;DHT22;52989;48.796;9.806;2022-09-25T05:58:15;12.60;99.90
66184;DHT22;52989;48.796;9.806;2022-09-25T06:00:41;12.50;99.90
66184;DHT22;52989;48.796;9.806;2022-09-25T06:03:07;12.40;99.90
66184;DHT22;52989;48.796;9.806;2022-09-25T06:05:33;12.50;99.90
66184;DHT22;52989;48.796;9.806;2022-09-25T06:07:58;12.30;99.90
66184;DHT22;52989;48.796;9.806;2022-09-25T06:10:24;12.60;99.90
66184;DHT22;52989;48.796;9.806;2022-09-25T06:12:51;12.50;99.90
66184;DHT22;52989;48.796;9.806;2022-09-25T06:15:20;12.70;99.90
66184;DHT22;52989;48.796;9.806;2022-09-25T06:17:48;13.10;99.90
66184;DHT22;52989;48.796;9.806;2022-09-25T06:20:14;12.80;99.90
66184;DHT22;52989;48.796;9.806;2022-09-25T06:22:39;12.50;99.90
66184;DHT22;52989;48.796;9.806;2022-09-25T06:25:05;12.70;99.90
66184;DHT22;52989;48.796;9.806;2022-09-25T06:27:31;12.80;99.90
66184;DHT22;52989;48.796;9.806;2022-09-25T06:29:58;12.80;99.90
66184;DHT22;52989;48.796;9.806;2022-09-25T06:32:23;12.40;99.90
66184;DHT22;52989;48.796;9.806;2022-09-25T06:34:49;12.50;99.90
66184;DHT22;52989;48.796;9.806;2022-09-25T06:37:14;12.90;99.90
66184;DHT22;52989;48.796;9.806;2022-09-25T06:39:40;12.60;99.90
66184;DHT22;52989;48.796;9.806;2022-09-25T06:42:05;13.20;99.90
66184;DHT22;52989;48.796;9.806;2022-09-25T06:44:31;13.00;99.90
66184;DHT22;52989;48.796;9.806;2022-09-25T06:46:57;13.00;99.90
66184;DHT22;52989;48.796;9.806;2022-09-25T06:49:24;12.80;99.90
66184;DHT22;52989;48.796;9.806;2022-09-25T06:51:49;13.00;99.90
66184;DHT22;52989;48.796;9.806;2022-09-25T06:54:15;13.30;99.90
66184;DHT22;52989;48.796;9.806;2022-09-25T06:56:41;13.00;99.90
66184;DHT22;52989;48.796;9.806;2022-09-25T06:59:07;13.40;99.90
66184;DHT22;52989;48.796;9.806;2022-09-25T07:01:34;13.30;99.90
66184;DHT22;52989;48.796;9.806;2022-09-25T07:03:59;13.30;99.90
66184;DHT22;52989;48.796;9.806;2022-09-25T07:06:26;13.40;99.90
66184;DHT22;52989;48.796;9.806;2022-09-25T07:08:53;13.50;99.90
66184;DHT22;52989;48.796;9.806;2022-09-25T07:11:24;13.20;99.90
66184;DHT22;52989;48.796;9.806;2022-09-25T07:13:50;13.40;99.90
66184;DHT22;52989;48.796;9.806;2022-09-25T07:16:18;13.60;99.90
66184;DHT22;52989;48.796;9.806;2022-09-25T07:18:44;13.70;99.90
66184;DHT22;52989;48.796;9.806;2022-09-25T07:21:16;13.50;99.90
66184;DHT22;52989;48.796;9.806;2022-09-25T07:23:42;13.60;99.90
66184;DHT22;52989;48.796;9.806;2022-09-25T07:26:10;13.60;99.90
66184;DHT22;52989;48.796;9.806;2022-09-25T07:28:39;13.40;99.90
66184;DHT22;52989;48.796;9.806;2022-09-25T07:31:19;13.30;99.90
66184;DHT22;52989;48.796;9.806;2022-09-25T07:33:46;13.30;99.90
66184;DHT22;52989;48.796;9.806;2022-09-25T07:36:12;13.00;99.90
66184;DHT22;52989;48.796;9.806;2022-09-25T07:38:38;13.20;99.90
66184;DHT22;52989;48.796;9.806;2022-09-25T07:41:05;13.60;99.90
66184;DHT22;52989;48.796;9.806;2022-09-25T07:43:33;13.20;99.90
66184;DHT22;52989;48.796;9.806;2022-09-25T07:45:59;13.00;99.90
66184;DHT22;52989;48.796;9.806;2022-09-25T07:48:25;13.30;99.90
66184;DHT22;52989;48.796;9.806;2022-09-25T07:50:51;13.00;99.90
66184;DHT22;52989;48.796;9.806;2022-09-25T07:53:17;13.10;99.90
66184;DHT22;52989;48.796;9.806;2022-09-25T07:55:44;13.40;99.90
66184;DHT22;52989;48.796;9.806;2022-09-25T07:58:10;13.20;99.90
66184;DHT22;52989;48.796;9.806;2022-09-25T08:00:36;13.70;99.90
66184;DHT22;52989;48.796;9.806;2022-09-25T08:03:01;13.90;99.90
66184;DHT22;52989;48.796;9.806;2022-09-25T08:05:27;14.10;99.90
66184;DHT22;52989;48.796;9.806;2022-09-25T08:07:53;14.20;99.90
66184;DHT22;52989;48.796;9.806;2022-09-25T08:10:21;14.30;99.90
66184;DHT22;52989;48.796;9.806;2022-09-25T08:12:46;14.10;99.90
66184;DHT22;52989;48.796;9.806;2022-09-25T08:15:12;14.30;99.90
66184;DHT22;52989;48.796;9.806;2022-09-25T08:17:41;14.30;99.90
66184;DHT22;52989;48.796;9.806;2022-09-25T08:20:07;14.10;99.90
66184;DHT22;52989;48.796;9.806;2022-09-25T08:22:33;14.20;99.90
66184;DHT22;52989;48.796;9.806;2022-09-25T08:24:59;14.30;99.90
66184;DHT22;52989;48.796;9.806;2022-09-25T08:27:27;14.50;99.90
66184;DHT22;52989;48.796;9.806;2022-09-25T08:29:53;14.80;99.90
66184;DHT22;52989;48.796;9.806;2022-09-25T08:32:18;14.70;99.90
66184;DHT22;52989;48.796;9.806;2022-09-25T08:34:44;14.80;99.90
66184;DHT22;52989;48.796;9.806;2022-09-25T08:37:10;14.60;99.90
66184;DHT22;52989;48.796;9.806;2022-09-25T08:39:36;14.70;99.90
66184;DHT22;52989;48.796;9.806;2022-09-25T08:42:01;14.50;99.90
66184;DHT22;52989;48.796;9.806;2022-09-25T08:44:34;14.30;99.90
66184;DHT22;52989;48.796;9.806;2022-09-25T08:47:20;14.30;99.90
66184;DHT22;52989;48.796;9.806;2022-09-25T08:50:17;13.80;99.90
66184;DHT22;52989;48.796;9.806;2022-09-25T08:52:47;13.70;99.90
66184;DHT22;52989;48.796;9.806;2022-09-25T08:55:34;13.80;99.90
66184;DHT22;52989;48.796;9.806;2022-09-25T08:58:50;14.20;99.90
66184;DHT22;52989;48.796;9.806;2022-09-25T09:01:28;14.50;99.90
66184;DHT22;52989;48.796;9.806;2022-09-25T09:04:12;14.80;99.90
66184;DHT22;52989;48.796;9.806;2022-09-25T09:06:40;14.70;99.90
66184;DHT22;52989;48.796;9.806;2022-09-25T09:09:18;14.40;99.90
66184;DHT22;52989;48.796;9.806;2022-09-25T09:12:08;14.10;99.90
66184;DHT22;52989;48.796;9.806;2022-09-25T09:14:41;14.10;99.90
66184;DHT22;52989;48.796;9.806;2022-09-25T09:17:23;14.10;99.90
66184;DHT22;52989;48.796;9.806;2022-09-25T09:19:58;13.90;99.90
66184;DHT22;52989;48.796;9.806;2022-09-25T09:22:36;13.70;99.90
66184;DHT22;52989;48.796;9.806;2022-09-25T09:25:26;13.60;99.90
66184;DHT22;52989;48.796;9.806;2022-09-25T09:33:34;14.30;99.90
66184;DHT22;52989;48.796;9.806;2022-09-25T09:41:48;14.10;99.90
66184;DHT22;52989;48.796;9.806;2022-09-25T09:44:42;13.70;99.90
66184;DHT22;52989;48.796;9.806;2022-09-25T09:50:26;14.70;99.90
66184;DHT22;52989;48.796;9.806;2022-09-25T09:52:59;14.10;99.90
66184;DHT22;52989;48.796;9.806;2022-09-25T09:55:39;14.40;99.90
66184;DHT22;52989;48.796;9.806;2022-09-25T09:58:19;14.30;99.90
66184;DHT22;52989;48.796;9.806;2022-09-25T10:00:47;14.70;99.90
66184;DHT22;52989;48.796;9.806;2022-09-25T10:03:27;14.80;99.90
66184;DHT22;52989;48.796;9.806;2022-09-25T10:05:57;14.70;99.90
66184;DHT22;52989;48.796;9.806;2022-09-25T10:08:23;14.60;99.90
66184;DHT22;52989;48.796;9.806;2022-09-25T10:10:50;14.40;99.90
66184;DHT22;52989;48.796;9.806;2022-09-25T10:13:24;14.40;99.90
66184;DHT22;52989;48.796;9.806;2022-09-25T10:23:51;14.10;99.90
66184;DHT22;52989;48.796;9.806;2022-09-25T10:26:24;14.00;99.90
66184;DHT22;52989;48.796;9.806;2022-09-25T10:28:50;14.00;99.90
66184;DHT22;52989;48.796;9.806;2022-09-25T10:31:17;14.50;99.90
66184;DHT22;52989;48.796;9.806;2022-09-25T10:34:00;14.80;99.90
66184;DHT22;52989;48.796;9.806;2022-09-25T10:36:33;14.60;99.90
66184;DHT22;52989;48.796;9.806;2022-09-25T10:38:59;14.10;99.90
66184;DHT22;52989;48.796;9.806;2022-09-25T10:41:27;14.00;99.90
66184;DHT22;52989;48.796;9.806;2022-09-25T10:43:57;14.00;99.90
66184;DHT22;52989;48.796;9.806;2022-09-25T10:46:29;14.70;99.90
66184;DHT22;52989;48.796;9.806;2022-09-25T10:49:19;15.30;99.90
66184;DHT22;52989;48.796;9.806;2022-09-25T10:52:06;14.60;99.90
66184;DHT22;52989;48.796;9.806;2022-09-25T10:54:33;14.80;99.90
66184;DHT22;52989;48.796;9.806;2022-09-25T10:56:59;14.40;99.90
66184;DHT22;52989;48.796;9.806;2022-09-25T10:59:25;14.10;99.90
66184;DHT22;52989;48.796;9.806;2022-09-25T11:01:53;14.00;99.90
66184;DHT22;52989;48.796;9.806;2022-09-25T11:04:24;13.90;99.90
66184;DHT22;52989;48.796;9.806;2022-09-25T11:06:54;13.90;99.90
66184;DHT22;52989;48.796;9.806;2022-09-25T11:09:24;14.00;99.90
66184;DHT22;52989;48.796;9.806;2022-09-25T11:11:52;14.20;99.90
66184;DHT22;52989;48.796;9.806;2022-09-25T11:14:23;14.20;99.90
66184;DHT22;52989;48.796;9.806;2022-09-25T11:16:52;14.80;99.90
66184;DHT22;52989;48.796;9.806;2022-09-25T11:22:17;14.80;99.90
66184;DHT22;52989;48.796;9.806;2022-09-25T11:27:50;14.60;99.90
66184;DHT22;52989;48.796;9.806;2022-09-25T11:30:21;14.70;99.90
66184;DHT22;52989;48.796;9.806;2022-09-25T11:36:04;14.70;99.90
66184;DHT22;52989;48.796;9.806;2022-09-25T11:38:35;14.80;99.90
66184;DHT22;52989;48.796;9.806;2022-09-25T11:41:37;14.50;99.90
66184;DHT22;52989;48.796;9.806;2022-09-25T11:47:14;14.30;99.90
66184;DHT22;52989;48.796;9.806;2022-09-25T11:49:40;14.40;99.90
66184;DHT22;52989;48.796;9.806;2022-09-25T12:01:18;15.00;99.90
66184;DHT22;52989;48.796;9.806;2022-09-25T12:06:52;14.30;99.90
66184;DHT22;52989;48.796;9.806;2022-09-25T12:20:56;14.40;99.90
66184;DHT22;52989;48.796;9.806;2022-09-25T12:23:36;14.40;99.90
66184;DHT22;52989;48.796;9.806;2022-09-25T12:40:01;14.80;99.90
66184;DHT22;52989;48.796;9.806;2022-09-25T12:42:34;15.10;99.90
66184;DHT22;52989;48.796;9.806;2022-09-25T12:45:16;15.60;99.90
66184;DHT22;52989;48.796;9.806;2022-09-25T12:48:06;15.40;99.90
66184;DHT22;52989;48.796;9.806;2022-09-25T12:50:41;15.40;99.90
66184;DHT22;52989;48.796;9.806;2022-09-25T12:53:21;15.30;99.90
66184;DHT22;52989;48.796;9.806;2022-09-25T12:55:52;15.50;99.90
66184;DHT22;52989;48.796;9.806;2022-09-25T12:58:28;15.70;99.90
66184;DHT22;52989;48.796;9.806;2022-09-25T13:01:05;15.50;99.90
66184;DHT22;52989;48.796;9.806;2022-09-25T13:06:18;15.40;99.90
66184;DHT22;52989;48.796;9.806;2022-09-25T13:09:00;15.70;99.90
66184;DHT22;52989;48.796;9.806;2022-09-25T13:12:20;15.90;99.90
66184;DHT22;52989;48.796;9.806;2022-09-25T13:14:32;15.70;99.90
66184;DHT22;52989;48.796;9.806;2022-09-25T13:17:00;15.50;99.90
66184;DHT22;52989;48.796;9.806;2022-09-25T13:19:28;15.50;99.90
66184;DHT22;52989;48.796;9.806;2022-09-25T13:22:09;15.70;99.90
66184;DHT22;52989;48.796;9.806;2022-09-25T13:24:42;15.30;99.90
66184;DHT22;52989;48.796;9.806;2022-09-25T13:27:14;15.30;99.90
66184;DHT22;52989;48.796;9.806;2022-09-25T13:29:40;15.10;99.90
66184;DHT22;52989;48.796;9.806;2022-09-25T13:32:14;14.90;99.90
66184;DHT22;52989;48.796;9.806;2022-09-25T13:34:41;15.10;99.90
66184;DHT22;52989;48.796;9.806;2022-09-25T13:37:09;15.10;99.90
66184;DHT22;52989;48.796;9.806;2022-09-25T13:39:45;15.40;99.90
66184;DHT22;52989;48.796;9.806;2022-09-25T13:42:41;15.80;99.90
66184;DHT22;52989;48.796;9.806;2022-09-25T13:45:28;15.60;99.90
66184;DHT22;52989;48.796;9.806;2022-09-25T13:50:52;15.40;99.90
66184;DHT22;52989;48.796;9.806;2022-09-25T13:56:18;16.30;99.90
66184;DHT22;52989;48.796;9.806;2022-09-25T14:01:44;16.70;99.90
66184;DHT22;52989;48.796;9.806;2022-09-25T14:06:43;16.10;99.90
66184;DHT22;52989;48.796;9.806;2022-09-25T14:09:12;16.40;99.90
66184;DHT22;52989;48.796;9.806;2022-09-25T14:11:40;16.20;99.90
66184;DHT22;52989;48.796;9.806;2022-09-25T14:14:15;16.20;99.90
66184;DHT22;52989;48.796;9.806;2022-09-25T14:16:49;15.90;99.90
66184;DHT22;52989;48.796;9.806;2022-09-25T14:19:19;15.80;99.90
66184;DHT22;52989;48.796;9.806;2022-09-25T14:21:46;16.00;99.90
66184;DHT22;52989;48.796;9.806;2022-09-25T14:24:18;15.70;99.90
66184;DHT22;52989;48.796;9.806;2022-09-25T14:26:46;15.80;99.90
66184;DHT22;52989;48.796;9.806;2022-09-25T14:29:17;15.70;99.90
66184;DHT22;52989;48.796;9.806;2022-09-25T14:32:24;15.80;99.90
66184;DHT22;52989;48.796;9.806;2022-09-25T14:35:22;15.70;99.90
66184;DHT22;52989;48.796;9.806;2022-09-25T14:38:18;15.30;99.90
66184;DHT22;52989;48.796;9.806;2022-09-25T14:43:40;15.50;99.90
66184;DHT22;52989;48.796;9.806;2022-09-25T14:46:19;15.60;99.90
66184;DHT22;52989;48.796;9.806;2022-09-25T14:49:11;15.30;99.90
66184;DHT22;52989;48.796;9.806;2022-09-25T14:51:44;15.20;99.90
66184;DHT22;52989;48.796;9.806;2022-09-25T14:54:18;15.00;99.90
66184;DHT22;52989;48.796;9.806;2022-09-25T14:56:46;14.70;99.90
66184;DHT22;52989;48.796;9.806;2022-09-25T14:59:36;14.50;99.90
66184;DHT22;52989;48.796;9.806;2022-09-25T15:02:30;14.70;99.90
66184;DHT22;52989;48.796;9.806;2022-09-25T15:05:18;15.20;99.90
66184;DHT22;52989;48.796;9.806;2022-09-25T15:07:53;15.10;99.90
66184;DHT22;52989;48.796;9.806;2022-09-25T15:10:34;14.80;99.90
66184;DHT22;52989;48.796;9.806;2022-09-25T15:13:05;14.70;99.90
66184;DHT22;52989;48.796;9.806;2022-09-25T15:15:32;14.80;99.90
66184;DHT22;52989;48.796;9.806;2022-09-25T15:17:58;15.00;99.90
66184;DHT22;52989;48.796;9.806;2022-09-25T15:20:36;14.90;99.90
66184;DHT22;52989;48.796;9.806;2022-09-25T15:23:17;14.90;99.90
66184;DHT22;52989;48.796;9.806;2022-09-25T15:25:46;14.90;99.90
66184;DHT22;52989;48.796;9.806;2022-09-25T15:28:15;15.10;99.90
66184;DHT22;52989;48.796;9.806;2022-09-25T15:30:42;15.60;99.90
66184;DHT22;52989;48.796;9.806;2022-09-25T15:33:30;16.00;99.90
66184;DHT22;52989;48.796;9.806;2022-09-25T15:36:00;15.70;99.90
66184;DHT22;52989;48.796;9.806;2022-09-25T15:38:35;15.50;99.90
66184;DHT22;52989;48.796;9.806;2022-09-25T15:41:01;15.40;99.90
66184;DHT22;52989;48.796;9.806;2022-09-25T15:43:27;15.40;99.90
66184;DHT22;52989;48.796;9.806;2022-09-25T15:46:29;15.30;99.90
66184;DHT22;52989;48.796;9.806;2022-09-25T15:48:58;15.10;99.90
66184;DHT22;52989;48.796;9.806;2022-09-25T15:51:26;15.20;99.90
66184;DHT22;52989;48.796;9.806;2022-09-25T15:54:02;15.10;99.90
66184;DHT22;52989;48.796;9.806;2022-09-25T15:56:35;15.00;99.90
66184;DHT22;52989;48.796;9.806;2022-09-25T15:59:13;15.20;99.90
66184;DHT22;52989;48.796;9.806;2022-09-25T16:01:41;15.10;99.90
66184;DHT22;52989;48.796;9.806;2022-09-25T16:04:26;15.10;99.90
66184;DHT22;52989;48.796;9.806;2022-09-25T16:07:25;15.20;99.90
66184;DHT22;52989;48.796;9.806;2022-09-25T16:09:57;15.20;99.90
66184;DHT22;52989;48.796;9.806;2022-09-25T16:12:52;15.00;99.90
66184;DHT22;52989;48.796;9.806;2022-09-25T16:18:24;14.90;99.90
66184;DHT22;52989;48.796;9.806;2022-09-25T16:23:35;14.80;99.90
66184;DHT22;52989;48.796;9.806;2022-09-25T16:26:03;14.60;99.90
66184;DHT22;52989;48.796;9.806;2022-09-25T16:28:32;14.40;99.90
66184;DHT22;52989;48.796;9.806;2022-09-25T16:31:06;14.30;99.90
66184;DHT22;52989;48.796;9.806;2022-09-25T16:33:36;14.10;99.90
66184;DHT22;52989;48.796;9.806;2022-09-25T16:36:06;14.30;99.90
66184;DHT22;52989;48.796;9.806;2022-09-25T16:38:37;14.40;99.90
66184;DHT22;52989;48.796;9.806;2022-09-25T16:41:09;14.30;99.90
66184;DHT22;52989;48.796;9.806;2022-09-25T16:43:43;14.10;99.90
66184;DHT22;52989;48.796;9.806;2022-09-25T16:46:15;14.30;99.90
66184;DHT22;52989;48.796;9.806;2022-09-25T16:48:43;13.90;99.90
66184;DHT22;52989;48.796;9.806;2022-09-25T16:51:18;13.70;99.90
66184;DHT22;52989;48.796;9.806;2022-09-25T16:53:45;13.60;99.90
66184;DHT22;52989;48.796;9.806;2022-09-25T16:56:27;13.80;99.90
66184;DHT22;52989;48.796;9.806;2022-09-25T16:58:54;13.80;99.90
66184;DHT22;52989;48.796;9.806;2022-09-25T17:01:20;13.70;99.90
66184;DHT22;52989;48.796;9.806;2022-09-25T17:03:47;13.20;99.90
66184;DHT22;52989;48.796;9.806;2022-09-25T17:06:16;13.20;99.90
66184;DHT22;52989;48.796;9.806;2022-09-25T17:08:43;13.10;99.90
66184;DHT22;52989;48.796;9.806;2022-09-25T17:11:10;13.10;99.90
66184;DHT22;52989;48.796;9.806;2022-09-25T17:13:36;13.10;99.90
66184;DHT22;52989;48.796;9.806;2022-09-25T17:16:02;13.20;99.90
66184;DHT22;52989;48.796;9.806;2022-09-25T17:18:28;13.20;99.90
66184;DHT22;52989;48.796;9.806;2022-09-25T17:20:54;13.30;99.90
66184;DHT22;52989;48.796;9.806;2022-09-25T17:23:22;13.30;99.90
66184;DHT22;52989;48.796;9.806;2022-09-25T17:26:02;13.50;99.90
66184;DHT22;52989;48.796;9.806;2022-09-25T17:28:28;13.50;99.90
66184;DHT22;52989;48.796;9.806;2022-09-25T17:30:54;13.40;99.90
66184;DHT22;52989;48.796;9.806;2022-09-25T17:33:21;13.20;99.90
66184;DHT22;52989;48.796;9.806;2022-09-25T17:38:23;12.90;99.90
66184;DHT22;52989;48.796;9.806;2022-09-25T17:40:50;12.80;99.90
66184;DHT22;52989;48.796;9.806;2022-09-25T17:43:17;13.00;99.90
66184;DHT22;52989;48.796;9.806;2022-09-25T17:45:49;12.90;99.90
66184;DHT22;52989;48.796;9.806;2022-09-25T17:48:17;13.00;99.90
66184;DHT22;52989;48.796;9.806;2022-09-25T17:50:50;12.80;99.90
66184;DHT22;52989;48.796;9.806;2022-09-25T17:53:22;12.70;99.90
66184;DHT22;52989;48.796;9.806;2022-09-25T17:55:48;12.50;99.90
66184;DHT22;52989;48.796;9.806;2022-09-25T17:58:15;12.70;99.90
66184;DHT22;52989;48.796;9.806;2022-09-25T18:00:42;12.80;99.90
66184;DHT22;52989;48.796;9.806;2022-09-25T18:03:10;12.60;99.90